Dearborn, MO

8:20 PM CST on February 27, 2017 (GMT -0600)
Clinton Estates | | Change Station

Elev 975 ft 39.47 °N, 94.58 °W | Updated 23 seconds ago

Partly Cloudy
Partly Cloudy
54.0 °F
Feels Like 54.0 °F
N
0.0
Wind Variable Wind from SE
Gusts 1.0 mph

Today
High -- | Low -- °F
--% Chance of Precip.
Yesterday
High -- | Low -- °F
Precip. -- in
Pressure 29.78 in
Visibility 10.0 miles
Clouds Few 3600 ft
Mostly Cloudy 15000 ft
Dew Point 39 °F
Humidity 57%
Rainfall 0.00 in
Snow Depth Not available.
6:54 AM 6:09 PM
Waxing Crescent, 3% visible
METAR KMCI 280153Z 16010KT 10SM FEW036 BKN150 14/07 A2977 RMK AO2 SLP083 T01440067
Pressure 29.78 in
Visibility 10.0 miles
Clouds Few 3600 ft
Mostly Cloudy 15000 ft
Dew Point 39 °F
Humidity 57%
Rainfall 0.00 in
Snow Depth Not available.
6:54 AM 6:09 PM
Waxing Crescent, 3% visible
METAR KMCI 280153Z 16010KT 10SM FEW036 BKN150 14/07 A2977 RMK AO2 SLP083 T01440067

Get Your Daily Forecast Email!

Thanks for signing up!

Be on the lookout for a verification email in your inbox.

You'll start receiving the daily forecast at 8 AM.

×

10-Day Weather Forecast

Almanac

Astronomy

Feb. 27, 2017 Rise Set
Actual Time
Civil Twilight
Nautical Twilight
Astronomical Twilight
Moon
Length of Visible Light
Length of Day
Tomorrow will be .
, % of the Moon is Illuminated

Today's Extremes

State Highs State Lows

Community

WunderPhotos

Upload Photos

1,962,540 photos uploaded!

WunderBlog® & News

Nearby

Air Quality

  Air Quality AQ Index Pollutant
Not available.

Snow Depth

Station Depth Elevation

Earthquake Activity

City Distance Mag. Time & Date
Minimum magnitude displayed is 2.5.

Coastal Water Temperatures

Place Temperature

Stations

Nearby Weather Stations

Station Location Temp. Windchill Dew Point Humidity Wind Precip. Elev Updated Type
                   

Watches & Warnings

There are currently no watches in effect.